Flag for USA

Past Weather in 35°08'57.9"N, 90°02'56.0"W, USA — Yesterday and Last 2 Weeks

Currently: 79 °F. Passing clouds. (Weather station: Memphis International Airport, USA). See more current weather

Past Weather in 35°08'57.9"N, 90°02'56.0"W — Graph

°F

35°08'57.9"N, 90°02'56.0"W Temperature Yesterday

Maximum temperature yesterday: 90 °F (at 3:54 pm)
Minimum temperature yesterday: 72 °F (at 4:54 am)
Average temperature yesterday: 81 °F

High & Low Weather Summary for the Past Weeks

 TemperatureHumidityPressure
High95 °F (Jul 15, 3:54 pm)97% (Jul 18, 2:22 am)30.18 "Hg (Jul 18, 2:22 am)
Low67 °F (Jul 10, 5:54 am)41% (Jul 12, 1:54 pm)29.76 "Hg (Jul 9, 9:54 am)
Average82 °F66%30.00 "Hg
* Reported Jul 6 11:54 pm — Jul 21 11:54 pm, 35°08'57.9"N, 90°02'56.0"W. Weather by CustomWeather, © 2024

Note: Actual official high and low records may vary slightly from our data, if they occured in-between our weather recording intervals... More about our weather records

35°08'57.9"N, 90°02'56.0"W Weather History for the Previous 24 Hours

Scroll right to see more
 ConditionsComfort  
Time TempWeatherWind HumidityBarometerVisibility
11:54 pm
Sun, Jul 21
79 °FPassing clouds.7 mph74%29.98 "Hg10 mi
10:54 pm79 °FPassing clouds.5 mph77%29.98 "Hg10 mi
9:54 pm82 °FPassing clouds.7 mph65%29.97 "Hg10 mi
8:54 pm82 °FPassing clouds.6 mph67%29.97 "Hg10 mi
7:54 pm83 °FPassing clouds.8 mph61%29.96 "Hg10 mi
6:54 pm85 °FScattered clouds.8 mph51%29.95 "Hg10 mi
5:54 pm88 °FScattered clouds.7 mph48%29.94 "Hg10 mi
4:54 pm89 °FScattered clouds.6 mph45%29.95 "Hg10 mi
3:54 pm90 °FScattered clouds.8 mph45%29.95 "Hg10 mi
2:54 pm88 °FScattered clouds.8 mph50%29.96 "Hg10 mi
1:54 pm87 °FScattered clouds.5 mph51%29.99 "Hg10 mi
12:54 pm87 °FScattered clouds.7 mph53%30.01 "Hg10 mi
11:54 am84 °FScattered clouds.7 mph59%30.02 "Hg10 mi
10:54 am82 °FScattered clouds.9 mph65%30.03 "Hg10 mi
9:54 am84 °FScattered clouds.7 mph63%30.02 "Hg10 mi
8:54 am80 °FScattered clouds.3 mph74%30.02 "Hg10 mi
7:54 am77 °FPartly sunny.No wind79%30.02 "Hg10 mi
6:54 am73 °FPartly sunny.No wind90%30.01 "Hg10 mi
5:54 am72 °FPartly sunny.No wind91%30.00 "Hg10 mi
4:54 am72 °FPassing clouds.3 mph91%29.99 "Hg10 mi
3:54 am73 °FPassing clouds.No wind88%30.00 "Hg10 mi
2:54 am74 °FClear.3 mph82%30.01 "Hg10 mi
1:54 am75 °FClear.No wind79%30.01 "Hg10 mi
Weather by CustomWeather, © 2024

See weather overview